Sanford, NC

8:56 AM EDT on March 30, 2017 (GMT -0400)
Raleigh Executive Jetport

Weather History for KTTA - April, 2014

Change the Weather History Date:

Tuesday, April 1, 2014

  Actual Average (KHRJ) Record (KHRJ)
Temperature  
Mean Temperature 57 °F -  
Max Temperature 81 °F 71 °F 87 °F (1974)
Min Temperature 33 °F 45 °F 28 °F (1987)
Degree Days  
Heating Degree Days 8    
Growing Degree Days 7 (Base 50)    
Moisture  
Dew Point 36 °F    
Average Humidity 58    
Maximum Humidity 97    
Minimum Humidity 15    
Precipitation  
Precipitation 0.00 in - - ()
Sea Level Pressure  
Sea Level Pressure 30.08 in    
Wind  
Wind Speed 1 mph (SW)    
Max Wind Speed 12 mph    
Max Gust Speed 16 mph    
Visibility 10 miles    
Events      
Averages and records for this station are not official NWS values.
T = Trace of Precipitation, MM = Missing Value Source: NWS Daily Summary

Daily Weather History Graph

Daily Weather History Graph

Search for Another Location

Airport or City:

Trip Planner

Search our weather history database for the weather conditions in past years. The results will help you decide how hot, cold, wet, or windy it might be!

Date:

Astronomy

Apr. 01, 2014 Rise Set
Actual Time 7:02 AM EDT 7:38 PM EDT
Civil Twilight 6:37 AM EDT 8:03 PM EDT
Nautical Twilight 6:07 AM EDT 8:34 PM EDT
Astronomical Twilight 5:36 AM EDT 9:04 PM EDT
Moon 8:08 AM EDT (4/1) 9:53 PM EDT (4/1)
Length of Visible Light 13h 26m
Length of Day
12h 35m
Waxing Crescent, 4% of the Moon is Illuminated
Apr 1
Waxing Crescent
Apr 7
First Quarter
Apr 15
Full
Apr 22
Last Quarter
Apr 29
New

Hourly Weather History & Observations

Time (EDT) Temp. Dew Point Humidity Pressure Visibility Wind Dir Wind Speed Gust Speed Precip Events Conditions
12:15 AM 42.4 °F 37.4 °F 82% 30.11 in 10.0 mi Calm Calm - N/A   Unknown
12:35 AM 41.4 °F 37.8 °F 87% 30.11 in 10.0 mi Calm Calm - N/A   Unknown
12:55 AM 41.2 °F 37.8 °F 88% 30.11 in 10.0 mi Calm Calm - N/A   Unknown
1:15 AM 41.0 °F 36.7 °F 85% 30.11 in 10.0 mi Calm Calm - N/A   Unknown
1:35 AM 39.7 °F 37.4 °F 91% 30.11 in 10.0 mi Calm Calm - N/A   Unknown
1:55 AM 39.0 °F 36.7 °F 91% 30.11 in 10.0 mi Calm Calm - N/A   Unknown
2:15 AM 39.2 °F 36.9 °F 91% 30.10 in 10.0 mi Calm Calm - N/A   Unknown
2:35 AM 38.3 °F 36.3 °F 93% 30.10 in 10.0 mi Calm Calm - N/A   Unknown
2:55 AM 38.1 °F 36.1 °F 93% 30.10 in 10.0 mi Calm Calm - N/A   Unknown
3:15 AM 38.1 °F 36.1 °F 93% 30.09 in 10.0 mi Calm Calm - N/A   Unknown
3:35 AM 37.6 °F 36.0 °F 94% 30.09 in 10.0 mi Calm Calm - N/A   Unknown
3:55 AM 36.5 °F 35.2 °F 95% 30.09 in 10.0 mi Calm Calm - N/A   Unknown
4:15 AM 35.8 °F 34.3 °F 94% 30.09 in 10.0 mi Calm Calm - N/A   Unknown
4:35 AM 35.6 °F 34.5 °F 96% 30.09 in 10.0 mi Calm Calm - N/A   Unknown
4:55 AM 36.0 °F 35.1 °F 97% 30.09 in 10.0 mi Calm Calm - N/A   Unknown
5:15 AM 35.4 °F 34.3 °F 96% 30.09 in 10.0 mi Calm Calm - N/A   Unknown
5:35 AM 35.6 °F 34.7 °F 97% 30.09 in 10.0 mi Calm Calm - N/A   Unknown
5:55 AM 36.0 °F 34.5 °F 94% 30.10 in 10.0 mi Calm Calm - N/A   Unknown
6:15 AM 36.0 °F 34.9 °F 96% 30.11 in 10.0 mi Calm Calm - N/A   Unknown
6:35 AM 34.5 °F 33.8 °F 97% 30.11 in 10.0 mi Calm Calm - N/A   Unknown
6:55 AM 33.8 °F 33.1 °F 97% 30.11 in 10.0 mi Calm Calm - N/A   Unknown
7:15 AM 34.9 °F 33.8 °F 96% 30.12 in 10.0 mi Calm Calm - N/A   Unknown
7:35 AM 34.0 °F 33.3 °F 97% 30.12 in 10.0 mi Calm Calm - N/A   Unknown
7:55 AM 35.2 °F 34.5 °F 97% 30.13 in 10.0 mi Calm Calm - N/A   Unknown
8:15 AM 36.3 °F 35.4 °F 97% 30.14 in 10.0 mi Calm Calm - N/A   Unknown
8:35 AM 36.5 °F 35.6 °F 97% 30.14 in 10.0 mi Calm Calm - N/A   Unknown
8:55 AM 39.6 °F 38.5 °F 96% 30.14 in 10.0 mi Calm Calm - N/A   Unknown
9:15 AM 43.9 °F 41.0 °F 90% 30.14 in 10.0 mi Calm Calm - N/A   Unknown
9:35 AM 47.7 °F 42.8 °F 83% 30.14 in 10.0 mi Calm Calm - N/A   Unknown
9:55 AM 50.4 °F 42.6 °F 75% 30.14 in 10.0 mi Calm Calm - N/A   Unknown
10:15 AM 53.4 °F 41.9 °F 65% 30.15 in 10.0 mi Calm Calm - N/A   Unknown
10:35 AM 56.5 °F 40.1 °F 54% 30.15 in 10.0 mi Calm Calm - N/A   Unknown
10:55 AM 60.4 °F 39.0 °F 45% 30.14 in 10.0 mi Calm Calm - N/A   Unknown
11:15 AM 64.6 °F 37.8 °F 37% 30.13 in 10.0 mi Calm Calm - N/A   Unknown
11:35 AM 66.2 °F 36.0 °F 33% 30.13 in 10.0 mi Calm Calm - N/A   Unknown
11:55 AM 67.8 °F 36.5 °F 32% 30.12 in 10.0 mi Calm Calm - N/A   Unknown
12:15 PM 69.6 °F 36.1 °F 29% 30.12 in 10.0 mi Calm Calm - N/A   Unknown
12:35 PM 72.5 °F 36.3 °F 27% 30.10 in 10.0 mi WSW 3.5 mph - N/A   Unknown
12:55 PM 74.1 °F 35.6 °F 25% 30.09 in 10.0 mi SW 3.5 mph - N/A   Unknown
1:15 PM 75.7 °F 34.9 °F 23% 30.08 in 10.0 mi WSW 5.8 mph - N/A   Unknown
1:35 PM 76.8 °F 34.5 °F 22% 30.07 in 10.0 mi WSW 5.8 mph - N/A   Unknown
1:55 PM 76.6 °F 34.2 °F 21% 30.07 in 10.0 mi Calm Calm - N/A   Unknown
2:15 PM 77.9 °F 31.1 °F 18% 30.06 in 10.0 mi SW 5.8 mph - N/A   Unknown
2:35 PM 79.3 °F 30.0 °F 17% 30.05 in 10.0 mi SSW 3.5 mph - N/A   Unknown
2:55 PM 79.9 °F 30.0 °F 16% 30.04 in 10.0 mi SW 5.8 mph - N/A   Unknown
3:15 PM 80.6 °F 30.7 °F 16% 30.04 in 10.0 mi WSW 6.9 mph - N/A   Unknown
3:35 PM 80.4 °F 28.9 °F 15% 30.03 in 10.0 mi WSW 11.5 mph 16.1 mph N/A   Unknown
3:55 PM 80.1 °F 29.7 °F 16% 30.02 in 10.0 mi SSW 6.9 mph - N/A   Unknown
4:15 PM 80.6 °F 29.1 °F 15% 30.01 in 10.0 mi SSE 4.6 mph - N/A   Unknown
4:35 PM 80.6 °F 30.7 °F 16% 30.01 in 10.0 mi WNW 3.5 mph - N/A   Unknown
4:55 PM 81.3 °F 29.1 °F 15% 30.00 in 10.0 mi WSW 6.9 mph - N/A   Unknown
5:15 PM 81.1 °F 30.2 °F 16% 30.00 in 10.0 mi SSW 8.1 mph - N/A   Unknown
5:35 PM 81.5 °F 31.3 °F 16% 30.00 in 10.0 mi SSW 11.5 mph - N/A   Unknown
5:55 PM 81.0 °F 32.5 °F 17% 30.00 in 10.0 mi South 8.1 mph - N/A   Unknown
6:15 PM 80.6 °F 30.7 °F 16% 30.00 in 10.0 mi SSW 5.8 mph - N/A   Unknown
6:35 PM 80.2 °F 29.3 °F 16% 30.00 in 10.0 mi WSW 8.1 mph - N/A   Unknown
6:55 PM 79.2 °F 30.6 °F 17% 30.01 in 10.0 mi SSW 6.9 mph - N/A   Unknown
7:15 PM 77.0 °F 32.2 °F 19% 30.01 in 10.0 mi SSW 5.8 mph - N/A   Unknown
7:35 PM 74.7 °F 32.4 °F 21% 30.01 in 10.0 mi South 4.6 mph - N/A   Unknown
7:55 PM 71.2 °F 34.3 °F 26% 30.02 in 10.0 mi Calm Calm - N/A   Unknown
8:15 PM 68.0 °F 37.6 °F 33% 30.02 in 10.0 mi Calm Calm - N/A   Unknown
8:35 PM 65.3 °F 36.0 °F 34% 30.04 in 10.0 mi Calm Calm - N/A   Unknown
8:55 PM 62.2 °F 38.8 °F 42% 30.04 in 10.0 mi Calm Calm - N/A   Unknown
9:15 PM 60.4 °F 40.6 °F 48% 30.04 in 10.0 mi Calm Calm - N/A   Unknown
9:35 PM 58.1 °F 40.6 °F 52% 30.04 in 10.0 mi Calm Calm - N/A   Unknown
9:55 PM 56.1 °F 41.7 °F 58% 30.04 in 10.0 mi Calm Calm - N/A   Unknown
10:15 PM 54.1 °F 42.3 °F 64% 30.04 in 10.0 mi Calm Calm - N/A   Unknown
10:35 PM 53.6 °F 41.9 °F 65% 30.04 in 10.0 mi Calm Calm - N/A   Unknown
10:55 PM 52.2 °F 41.9 °F 68% 30.05 in 10.0 mi Calm Calm - N/A   Unknown
11:15 PM 51.6 °F 40.8 °F 67% 30.05 in 10.0 mi Calm Calm - N/A   Unknown
11:35 PM 50.4 °F 40.5 °F 69% 30.05 in 10.0 mi Calm Calm - N/A   Unknown
11:55 PM 50.2 °F 40.3 °F 69% 30.05 in 10.0 mi Calm Calm - N/A   Unknown